createdAt,value
2023-04-02T00:01:47.190Z,28.15
2023-04-02T00:04:23.316Z,27.70
2023-04-02T00:07:37.173Z,27.75
2023-04-02T00:10:12.226Z,26.35
2023-04-02T00:13:17.156Z,26.73
2023-04-02T00:16:01.204Z,24.80
2023-04-02T00:19:00.161Z,25.08
2023-04-02T00:21:50.137Z,25.15
2023-04-02T00:24:26.296Z,25.00
2023-04-02T00:27:17.167Z,23.77
2023-04-02T00:30:00.431Z,23.90
2023-04-02T00:32:47.230Z,24.67
2023-04-02T00:35:29.346Z,23.48
2023-04-02T00:38:27.181Z,25.38
2023-04-02T00:41:11.161Z,26.58
2023-04-02T00:44:07.191Z,25.20
2023-04-02T00:46:56.159Z,22.30
2023-04-02T00:49:38.321Z,24.15
2023-04-02T00:52:29.169Z,22.58
2023-04-02T00:55:12.194Z,23.05
2023-04-02T00:58:01.176Z,22.77
2023-04-02T01:00:41.594Z,21.13
2023-04-02T01:03:29.380Z,20.77
2023-04-02T01:06:11.044Z,22.15
2023-04-02T01:09:07.213Z,21.80
2023-04-02T01:11:40.316Z,19.52
2023-04-02T01:15:04.161Z,20.20
2023-04-02T01:18:16.170Z,20.08
2023-04-02T01:21:29.180Z,20.60
2023-04-02T01:24:18.165Z,20.92
2023-04-02T01:27:09.203Z,21.85
2023-04-02T01:30:03.189Z,20.40
2023-04-02T01:32:44.239Z,21.08
2023-04-02T01:35:41.216Z,28.05
2023-04-02T01:38:37.170Z,25.90
2023-04-02T01:41:20.460Z,26.15
2023-04-02T01:44:19.180Z,25.90
2023-04-02T01:46:58.828Z,24.50
2023-04-02T01:49:53.210Z,24.38
2023-04-02T01:52:51.183Z,25.85
2023-04-02T01:55:31.424Z,27.00
2023-04-02T01:58:20.226Z,26.60
2023-04-02T02:01:03.313Z,27.13
2023-04-02T02:03:51.221Z,28.13
2023-04-02T02:06:26.293Z,27.15
2023-04-02T02:09:18.193Z,26.58
2023-04-02T02:11:51.460Z,27.33
2023-04-02T02:14:38.200Z,26.42
2023-04-02T02:17:26.646Z,26.50
2023-04-02T02:20:19.220Z,27.80
2023-04-02T02:22:58.372Z,26.50
2023-04-02T02:25:47.217Z,25.98
2023-04-02T02:28:52.211Z,26.58
2023-04-02T02:31:49.238Z,25.63
2023-04-02T02:34:43.241Z,26.35
2023-04-02T02:37:24.318Z,26.25
2023-04-02T02:40:19.196Z,25.70
2023-04-02T02:43:01.312Z,26.38
2023-04-02T02:45:50.215Z,27.70
2023-04-02T02:48:28.312Z,27.10
2023-04-02T02:51:24.226Z,27.05
2023-04-02T02:54:01.367Z,27.42
2023-04-02T02:56:54.242Z,27.88
2023-04-02T02:59:36.228Z,26.10
2023-04-02T03:02:30.303Z,27.60
2023-04-02T03:05:28.227Z,25.10
2023-04-02T03:08:04.386Z,26.67
2023-04-02T03:11:00.199Z,28.25
2023-04-02T03:13:42.101Z,27.05
2023-04-02T03:16:45.218Z,29.10
2023-04-02T03:19:35.331Z,28.13
2023-04-02T03:22:38.266Z,27.88
2023-04-02T03:25:34.590Z,28.30
2023-04-02T03:28:25.254Z,28.90
2023-04-02T03:31:27.243Z,28.90
2023-04-02T03:34:32.251Z,29.48
2023-04-02T03:37:29.235Z,28.77
2023-04-02T03:40:09.760Z,28.35
2023-04-02T03:43:02.275Z,28.20
2023-04-02T03:45:49.235Z,27.58
2023-04-02T03:48:57.992Z,27.95
2023-04-02T03:51:53.256Z,29.65
2023-04-02T03:54:26.453Z,28.55
2023-04-02T03:57:27.330Z,27.95
2023-04-02T04:00:26.281Z,28.25
2023-04-02T04:03:28.224Z,26.30
2023-04-02T04:06:20.304Z,24.80
2023-04-02T04:09:03.849Z,25.77
2023-04-02T04:11:57.241Z,22.45
2023-04-02T04:14:44.849Z,23.20
2023-04-02T04:18:03.268Z,24.80
2023-04-02T04:20:48.246Z,23.67
2023-04-02T04:23:56.263Z,21.75
2023-04-02T04:26:56.260Z,19.30
2023-04-02T04:29:54.423Z,20.35
2023-04-02T04:32:49.288Z,21.10
2023-04-02T04:35:36.536Z,20.08
2023-04-02T04:38:39.274Z,19.20
2023-04-02T04:41:40.276Z,22.10
2023-04-02T04:45:03.269Z,23.83
2023-04-02T04:48:00.307Z,23.33
2023-04-02T04:51:11.282Z,22.90
2023-04-02T04:54:08.260Z,24.50
2023-04-02T04:56:54.327Z,24.98
2023-04-02T04:59:41.301Z,26.13
2023-04-02T05:02:32.299Z,27.30
2023-04-02T05:05:41.296Z,26.67
2023-04-02T05:08:40.343Z,26.38
2023-04-02T05:11:54.274Z,27.23
2023-04-02T05:14:57.279Z,26.45
2023-04-02T05:18:09.276Z,28.05
2023-04-02T05:21:23.286Z,28.38
2023-04-02T05:23:59.394Z,25.80
2023-04-02T05:26:51.292Z,27.45
2023-04-02T05:29:31.467Z,28.85
2023-04-02T05:32:30.341Z,28.35
2023-04-02T05:35:14.263Z,29.88
2023-04-02T05:38:10.335Z,28.73
2023-04-02T05:41:33.272Z,29.42
2023-04-02T05:44:14.398Z,30.55
2023-04-02T05:47:04.285Z,27.95
2023-04-02T05:50:23.314Z,26.38
2023-04-02T05:53:23.313Z,27.58
2023-04-02T05:56:31.504Z,27.50
2023-04-02T05:59:26.290Z,26.42
2023-04-02T06:02:15.335Z,29.33
2023-04-02T06:05:12.312Z,30.77
2023-04-02T06:08:01.314Z,27.10
2023-04-02T06:11:08.299Z,30.08
2023-04-02T06:13:55.343Z,31.15
2023-04-02T06:16:34.458Z,27.95
2023-04-02T06:19:39.300Z,29.40
2023-04-02T06:22:40.326Z,28.27
2023-04-02T06:25:48.298Z,29.77
2023-04-02T06:28:48.323Z,30.92
2023-04-02T06:31:46.524Z,29.85
2023-04-02T06:34:36.302Z,30.77
2023-04-02T06:37:32.477Z,29.15
2023-04-02T06:40:50.291Z,28.50
2023-04-02T06:43:45.318Z,27.90
2023-04-02T06:46:51.146Z,28.92
2023-04-02T06:50:11.378Z,29.48
2023-04-02T06:53:08.337Z,28.25
2023-04-02T06:56:12.314Z,30.38
2023-04-02T06:58:59.316Z,29.23
2023-04-02T07:01:37.452Z,28.55
2023-04-02T07:04:26.421Z,28.42
2023-04-02T07:07:06.306Z,25.13
2023-04-02T07:10:00.340Z,27.00
2023-04-02T07:12:47.310Z,24.50
2023-04-02T07:15:25.505Z,23.88
2023-04-02T07:18:12.315Z,27.15
2023-04-02T07:20:52.358Z,27.23
2023-04-02T07:23:39.336Z,27.77
2023-04-02T07:26:21.334Z,24.42
2023-04-02T07:29:15.356Z,24.20
2023-04-02T07:32:09.320Z,24.90
2023-04-02T07:34:56.322Z,25.65
2023-04-02T07:37:36.315Z,25.35
2023-04-02T07:40:32.331Z,25.00
2023-04-02T07:43:26.342Z,24.20
2023-04-02T07:46:23.469Z,25.58
2023-04-02T07:49:17.328Z,28.65
2023-04-02T07:52:11.320Z,26.40
2023-04-02T07:54:58.336Z,24.33
2023-04-02T07:57:38.349Z,26.90
2023-04-02T08:00:25.347Z,24.25
2023-04-02T08:03:06.406Z,23.88
2023-04-02T08:06:10.327Z,26.20
2023-04-02T08:09:04.349Z,24.92
2023-04-02T08:11:53.317Z,23.38
2023-04-02T08:14:33.346Z,23.80
2023-04-02T08:17:20.348Z,21.25
2023-04-02T08:19:55.215Z,22.70
2023-04-02T08:22:42.338Z,21.80
2023-04-02T08:25:16.441Z,23.73
2023-04-02T08:28:03.363Z,21.95
2023-04-02T08:30:36.610Z,20.48
2023-04-02T08:33:24.369Z,20.17
2023-04-02T08:35:57.484Z,22.58
2023-04-02T08:38:44.350Z,20.70
2023-04-02T08:41:28.456Z,24.40
2023-04-02T08:44:26.373Z,23.65
2023-04-02T08:47:12.356Z,23.83
2023-04-02T08:50:17.363Z,24.52
2023-04-02T08:53:13.361Z,22.63
2023-04-02T08:56:12.369Z,22.17
2023-04-02T08:59:03.372Z,24.33
2023-04-02T09:02:29.400Z,24.00
2023-04-02T09:05:25.366Z,23.00
2023-04-02T09:07:59.492Z,22.42
2023-04-02T09:10:52.364Z,21.80
2023-04-02T09:13:37.501Z,23.40
2023-04-02T09:16:29.402Z,22.40
2023-04-02T09:19:02.491Z,22.70
2023-04-02T09:22:09.391Z,23.38
2023-04-02T09:24:43.597Z,22.15
2023-04-02T09:27:36.424Z,22.88
2023-04-02T09:30:40.367Z,22.42
2023-04-02T09:33:46.385Z,22.65
2023-04-02T09:36:53.402Z,20.50
2023-04-02T09:39:47.379Z,21.42
2023-04-02T09:42:40.380Z,19.98
2023-04-02T09:45:21.488Z,20.90
2023-04-02T09:48:08.459Z,20.15
2023-04-02T09:50:41.530Z,21.95
2023-04-02T09:53:42.787Z,21.17
2023-04-02T09:56:43.368Z,21.02
2023-04-02T09:59:37.439Z,19.60
2023-04-02T10:02:36.491Z,19.35
2023-04-02T10:05:11.507Z,18.92
2023-04-02T10:08:00.439Z,18.83
2023-04-02T10:10:43.454Z,20.23
2023-04-02T10:13:42.397Z,18.77
2023-04-02T10:16:50.509Z,20.75
2023-04-02T10:19:59.401Z,20.13
2023-04-02T10:22:47.396Z,20.88
2023-04-02T10:25:22.514Z,18.15
2023-04-02T10:28:39.390Z,17.45
2023-04-02T10:31:38.418Z,16.98
2023-04-02T10:34:33.409Z,18.70
2023-04-02T10:37:25.439Z,18.00
2023-04-02T10:40:31.409Z,17.13
2023-04-02T10:43:49.438Z,18.02
2023-04-02T10:47:00.418Z,17.60
2023-04-02T10:50:13.413Z,17.90
2023-04-02T10:53:18.415Z,15.52
2023-04-02T10:56:01.419Z,16.65
2023-04-02T10:59:04.410Z,16.85
2023-04-02T11:01:38.892Z,18.77
2023-04-02T11:04:29.460Z,18.35
2023-04-02T11:07:14.663Z,19.20
2023-04-02T11:10:04.444Z,18.45
2023-04-02T11:12:51.581Z,20.85
2023-04-02T11:15:38.432Z,18.10
2023-04-02T11:18:12.616Z,17.92
2023-04-02T11:21:07.414Z,17.80
2023-04-02T11:24:00.809Z,18.67
2023-04-02T11:26:50.427Z,17.90
2023-04-02T11:29:41.430Z,19.58
2023-04-02T11:32:28.459Z,19.13
2023-04-02T11:35:08.444Z,18.00
2023-04-02T11:37:55.459Z,18.80
2023-04-02T11:40:51.648Z,19.42
2023-04-02T11:43:41.455Z,19.35
2023-04-02T11:46:26.593Z,22.20
2023-04-02T11:49:52.451Z,22.52
2023-04-02T11:52:58.434Z,21.23
2023-04-02T11:55:37.647Z,19.90
2023-04-02T11:58:43.453Z,21.23
2023-04-02T12:01:25.738Z,20.88
2023-04-02T12:04:18.439Z,21.40
2023-04-02T12:07:34.820Z,19.98
2023-04-02T12:10:55.467Z,20.15
2023-04-02T12:13:55.467Z,21.65
2023-04-02T12:16:49.465Z,20.75
2023-04-02T12:19:38.445Z,21.25
2023-04-02T12:22:12.550Z,22.58
2023-04-02T12:25:03.462Z,20.40
2023-04-02T12:27:38.098Z,20.10
2023-04-02T12:30:29.457Z,18.80
2023-04-02T12:33:03.559Z,15.90
2023-04-02T12:35:51.509Z,18.42
2023-04-02T12:38:39.586Z,19.20
2023-04-02T12:41:39.478Z,17.67
2023-04-02T12:44:20.150Z,16.80
2023-04-02T12:47:06.486Z,16.80
2023-04-02T12:49:48.559Z,15.55
2023-04-02T12:52:36.460Z,17.42
2023-04-02T12:55:11.559Z,15.68
2023-04-02T12:58:05.479Z,14.95
2023-04-02T13:00:39.689Z,14.35
2023-04-02T13:03:29.161Z,14.70
2023-04-02T13:06:10.481Z,14.50
2023-04-02T13:09:04.491Z,16.15
2023-04-02T13:11:51.512Z,14.00
2023-04-02T13:14:27.666Z,14.43
2023-04-02T13:17:50.517Z,13.98
2023-04-02T13:20:45.486Z,14.07
2023-04-02T13:23:42.500Z,15.57
2023-04-02T13:26:39.483Z,14.40
2023-04-02T13:29:41.477Z,12.95
2023-04-02T13:32:20.023Z,12.40
2023-04-02T13:35:06.486Z,10.88
2023-04-02T13:37:39.623Z,12.57
2023-04-02T13:40:26.507Z,12.43
2023-04-02T13:43:06.496Z,11.52
2023-04-02T13:45:59.497Z,13.88
2023-04-02T13:48:39.497Z,14.63
2023-04-02T13:51:36.524Z,13.80
2023-04-02T13:54:30.516Z,12.98
2023-04-02T13:57:03.665Z,12.15
2023-04-02T13:59:50.513Z,12.32
2023-04-02T14:02:31.598Z,13.38
2023-04-02T14:05:43.538Z,14.82
2023-04-02T14:08:36.508Z,12.63
2023-04-02T14:11:39.513Z,11.68
2023-04-02T14:14:44.490Z,13.23
2023-04-02T14:18:01.571Z,14.25
2023-04-02T14:21:06.521Z,13.48
2023-04-02T14:24:09.527Z,12.63
2023-04-02T14:27:15.504Z,12.38
2023-04-02T14:30:20.490Z,10.55
2023-04-02T14:32:53.692Z,11.75
2023-04-02T14:35:52.557Z,12.68
2023-04-02T14:38:49.523Z,13.23
2023-04-02T14:41:56.515Z,12.82
2023-04-02T14:44:51.511Z,11.27
2023-04-02T14:47:43.629Z,11.48
2023-04-02T14:50:43.548Z,14.88
2023-04-02T14:53:40.507Z,11.85
2023-04-02T14:56:16.735Z,11.85
2023-04-02T14:59:11.542Z,11.60
2023-04-02T15:01:51.359Z,13.32
2023-04-02T15:04:49.526Z,13.95
2023-04-02T15:07:30.643Z,12.55
2023-04-02T15:10:23.536Z,12.93
2023-04-02T15:12:59.629Z,13.90
2023-04-02T15:15:49.561Z,15.23
2023-04-02T15:18:25.597Z,14.50
2023-04-02T15:21:43.416Z,12.75
2023-04-02T15:24:25.640Z,12.65
2023-04-02T15:27:25.568Z,12.80
2023-04-02T15:30:21.557Z,13.57
2023-04-02T15:33:55.480Z,15.55
2023-04-02T15:36:41.548Z,15.25
2023-04-02T15:39:56.528Z,13.93
2023-04-02T15:42:49.537Z,12.50
2023-04-02T15:46:24.617Z,14.10
2023-04-02T15:49:42.550Z,13.57
2023-04-02T15:52:51.534Z,13.77
2023-04-02T15:55:44.638Z,13.23
2023-04-02T15:58:53.530Z,13.30
2023-04-02T16:01:47.663Z,14.77
2023-04-02T16:04:34.583Z,14.18
2023-04-02T16:07:32.537Z,12.00
2023-04-02T16:10:41.156Z,13.25
2023-04-02T16:13:41.563Z,12.80
2023-04-02T16:16:43.594Z,14.63
2023-04-02T16:19:43.542Z,12.23
2023-04-02T16:22:46.948Z,13.27
2023-04-02T16:25:38.542Z,13.25
2023-04-02T16:28:40.569Z,12.02
2023-04-02T16:31:49.576Z,12.52
2023-04-02T16:34:34.665Z,11.18
2023-04-02T16:37:33.551Z,15.38
2023-04-02T16:40:54.299Z,12.40
2023-04-02T16:44:02.554Z,12.55
2023-04-02T16:46:57.615Z,14.48
2023-04-02T16:50:04.690Z,12.65
2023-04-02T16:53:25.557Z,13.55
2023-04-02T16:56:42.561Z,12.50
2023-04-02T16:59:44.565Z,13.75
2023-04-02T17:03:00.622Z,13.77
2023-04-02T17:06:08.550Z,12.57
2023-04-02T17:09:03.567Z,13.02
2023-04-02T17:11:54.565Z,13.02
2023-04-02T17:15:04.588Z,13.32
2023-04-02T17:17:59.629Z,12.27
2023-04-02T17:20:46.568Z,13.25
2023-04-02T17:23:21.692Z,13.20
2023-04-02T17:26:14.554Z,13.57
2023-04-02T17:28:55.607Z,16.52
2023-04-02T17:31:44.618Z,16.50
2023-04-02T17:34:25.792Z,16.73
2023-04-02T17:37:33.580Z,16.75
2023-04-02T17:40:14.685Z,15.52
2023-04-02T17:43:22.587Z,14.90
2023-04-02T17:45:57.717Z,12.32
2023-04-02T17:48:52.588Z,14.52
2023-04-02T17:51:44.595Z,14.75
2023-04-02T17:54:50.595Z,15.43
2023-04-02T17:57:45.834Z,14.05
2023-04-02T18:01:02.639Z,15.82
2023-04-02T18:04:19.604Z,16.08
2023-04-02T18:07:22.607Z,14.27
2023-04-02T18:10:41.583Z,14.60
2023-04-02T18:13:35.751Z,14.90
2023-04-02T18:16:40.686Z,15.05
2023-04-02T18:19:31.256Z,14.50
2023-04-02T18:22:21.596Z,13.30
2023-04-02T18:25:30.750Z,14.38
2023-04-02T18:28:44.607Z,14.13
2023-04-02T18:31:53.618Z,15.73
2023-04-02T18:35:40.653Z,14.93
2023-04-02T18:38:34.632Z,15.05
2023-04-02T18:41:37.594Z,15.90
2023-04-02T18:44:36.550Z,17.77
2023-04-02T18:47:28.620Z,17.65
2023-04-02T18:50:36.763Z,16.67
2023-04-02T18:53:35.627Z,18.05
2023-04-02T18:56:28.606Z,14.48
2023-04-02T18:59:10.718Z,12.70
2023-04-02T19:02:00.637Z,13.93
2023-04-02T19:04:37.766Z,16.40
2023-04-02T19:07:26.650Z,14.38
2023-04-02T19:10:15.817Z,17.30
2023-04-02T19:13:09.648Z,15.93
2023-04-02T19:16:05.674Z,15.98
2023-04-02T19:19:01.765Z,15.32
2023-04-02T19:21:48.610Z,17.95
2023-04-02T19:24:55.012Z,16.50
2023-04-02T19:27:57.607Z,17.23
2023-04-02T19:30:40.639Z,14.80
2023-04-02T19:33:47.622Z,14.48
2023-04-02T19:36:53.588Z,17.92
2023-04-02T19:40:02.638Z,18.73
2023-04-02T19:42:55.619Z,17.48
2023-04-02T19:45:44.612Z,17.45
2023-04-02T19:48:41.625Z,16.05
2023-04-02T19:51:35.635Z,16.30
2023-04-02T19:54:29.608Z,15.82
2023-04-02T19:57:20.669Z,13.30
2023-04-02T19:59:53.722Z,16.55
2023-04-02T20:02:40.670Z,16.20
2023-04-02T20:05:14.816Z,15.38
2023-04-02T20:08:01.648Z,16.52
2023-04-02T20:10:41.651Z,15.57
2023-04-02T20:13:35.640Z,13.70
2023-04-02T20:16:15.692Z,16.63
2023-04-02T20:18:55.736Z,14.52
2023-04-02T20:21:41.636Z,14.73
2023-04-02T20:24:21.738Z,13.50
2023-04-02T20:27:01.631Z,15.90
2023-04-02T20:29:42.479Z,15.35
2023-04-02T20:32:23.854Z,15.95
2023-04-02T20:35:03.895Z,15.15
2023-04-02T20:37:43.640Z,14.85
2023-04-02T20:40:25.095Z,14.30
2023-04-02T20:43:04.659Z,15.00
2023-04-02T20:45:45.498Z,15.23
2023-04-02T20:48:50.662Z,14.70
2023-04-02T20:51:48.549Z,14.52
2023-04-02T20:54:42.673Z,14.77
2023-04-02T20:57:36.738Z,16.33
2023-04-02T21:00:24.648Z,16.90
2023-04-02T21:02:57.908Z,14.82
2023-04-02T21:05:51.674Z,15.40
2023-04-02T21:08:25.009Z,16.58
2023-04-02T21:11:12.686Z,15.73
2023-04-02T21:13:53.658Z,15.98
2023-04-02T21:16:47.667Z,17.25
2023-04-02T21:19:41.657Z,16.33
2023-04-02T21:22:35.668Z,16.02
2023-04-02T21:25:22.702Z,17.48
2023-04-02T21:27:55.775Z,15.15
2023-04-02T21:30:42.677Z,15.88
2023-04-02T21:33:22.650Z,15.65
2023-04-02T21:36:23.752Z,17.52
2023-04-02T21:39:20.659Z,16.67
2023-04-02T21:42:14.675Z,15.95
2023-04-02T21:45:02.673Z,16.10
2023-04-02T21:47:35.794Z,18.10
2023-04-02T21:50:29.670Z,18.63
2023-04-02T21:53:23.695Z,16.05
2023-04-02T21:56:15.688Z,16.58
2023-04-02T21:58:49.747Z,17.10
2023-04-02T22:01:33.710Z,13.70
2023-04-02T22:04:16.525Z,14.38
2023-04-02T22:06:58.694Z,13.93
2023-04-02T22:09:38.762Z,15.40
2023-04-02T22:12:18.669Z,16.77
2023-04-02T22:14:58.790Z,16.50
2023-04-02T22:17:38.741Z,16.75
2023-04-02T22:20:18.788Z,14.70
2023-04-02T22:22:58.698Z,16.15
2023-04-02T22:25:38.698Z,14.15
2023-04-02T22:28:18.673Z,15.02
2023-04-02T22:31:18.707Z,15.27
2023-04-02T22:33:59.697Z,16.60
2023-04-02T22:36:53.677Z,17.88
2023-04-02T22:39:47.694Z,16.38
2023-04-02T22:42:41.670Z,18.02
2023-04-02T22:45:29.692Z,17.75
2023-04-02T22:48:02.917Z,16.80
2023-04-02T22:50:56.675Z,17.67
2023-04-02T22:53:51.697Z,19.23
2023-04-02T22:56:45.688Z,17.40
2023-04-02T22:59:32.704Z,16.10
2023-04-02T23:02:05.849Z,15.65
2023-04-02T23:04:52.738Z,16.60
2023-04-02T23:07:25.789Z,17.95
2023-04-02T23:10:12.696Z,16.90
2023-04-02T23:12:45.913Z,17.63
2023-04-02T23:15:32.700Z,16.83
2023-04-02T23:18:05.918Z,20.35
2023-04-02T23:20:52.720Z,17.27
2023-04-02T23:23:25.798Z,19.42
2023-04-02T23:26:21.728Z,18.10
2023-04-02T23:28:56.169Z,18.75
2023-04-02T23:31:42.806Z,17.15
2023-04-02T23:34:16.792Z,16.13
2023-04-02T23:37:03.697Z,16.95
2023-04-02T23:39:37.025Z,18.60
2023-04-02T23:42:23.750Z,14.27
2023-04-02T23:44:56.831Z,17.65
2023-04-02T23:47:43.730Z,18.98
2023-04-02T23:50:26.732Z,16.02
2023-04-02T23:53:20.711Z,15.85
2023-04-02T23:56:07.705Z,17.60
2023-04-02T23:58:40.988Z,17.55
